Stubbekobing, Denmark
Current Conditions -  °F | °C
As of 6:50 PM on Monday 22 Dec 2014 (Local Time) from EKRK Reporting Station
Overcast Overcast  
Wind Chill: 39°   Ceiling: 2200
Heat Index: 46°   Visibility: 6mi
Dew Point: 43°   Wind: 17mph
Humidity: 87%   Direction: 260°W
Pressure: 29.56"   Gusts: NA
Location:  54.89°N, 12.04°E
Report Text: EKRK 221750Z AUTO 26015KT 230V290 9999NDV FEW013/// SCT018///BKN022/// OVC050/// 08/06 Q1001
Loading
Personal Weather Stations






























Interactive Weather Map New forecast layout! Learn more

10-Day Weather Forecast

Advertisements
Track Severe Weather on mobile